Time;durP1;ratioP1;P1;durP2;ratioP2;P2;SDS_P1;SDS_P2;PMS_P1;PMS_P2;Temp;Humidity;BMP_temperature;BMP_pressure;BME280_temperature;BME280_humidity;BME280_pressure;Samples;Min_cycle;Max_cycle;Signal;HPM_P1;HPM_P2
2023/07/24 00:01:17;;;;;;;3.03;2.72;;;22.30;70.00;;;;;;5090176;28;20056;-52
2023/07/24 00:03:47;;;;;;;2.67;2.42;;;22.30;70.00;;;;;;5085823;28;20035;-54
2023/07/24 00:06:13;;;;;;;3.33;2.83;;;22.30;70.10;;;;;;5091110;28;20054;-55
2023/07/24 00:08:40;;;;;;;3.72;2.60;;;22.20;70.40;;;;;;5089384;28;20044;-56
2023/07/24 00:11:08;;;;;;;4.18;2.97;;;22.20;70.50;;;;;;5089169;28;20048;-52
2023/07/24 00:13:34;;;;;;;3.85;2.20;;;22.10;70.60;;;;;;5091302;28;20119;-53
2023/07/24 00:16:06;;;;;;;3.80;2.90;;;22.20;70.70;;;;;;5091468;28;20454;-54
2023/07/24 00:18:37;;;;;;;3.80;2.45;;;22.20;71.30;;;;;;5085985;28;20103;-54
2023/07/24 00:21:06;;;;;;;2.65;2.05;;;22.10;71.10;;;;;;5090399;28;20071;-51
2023/07/24 00:23:41;;;;;;;3.50;3.20;;;22.10;71.00;;;;;;5090976;28;20055;-55
2023/07/24 00:26:13;;;;;;;2.83;2.30;;;22.10;71.20;;;;;;5089768;28;20044;-54
2023/07/24 00:28:46;;;;;;;4.22;2.70;;;22.20;71.20;;;;;;5086134;28;20138;-53
2023/07/24 00:31:14;;;;;;;4.63;2.72;;;22.20;71.20;;;;;;5071789;28;20138;-56
2023/07/24 00:33:43;;;;;;;3.88;2.80;;;22.20;71.40;;;;;;5065058;28;20591;-50
2023/07/24 00:36:11;;;;;;;2.90;2.63;;;22.20;71.20;;;;;;5072391;28;20135;-53
2023/07/24 00:38:40;;;;;;;3.38;2.72;;;22.20;71.30;;;;;;5086314;28;20447;-51
2023/07/24 00:41:09;;;;;;;2.53;2.15;;;22.20;71.30;;;;;;5089980;28;20125;-53
2023/07/24 00:43:41;;;;;;;3.58;2.42;;;22.20;71.60;;;;;;5090362;28;20111;-50
2023/07/24 00:46:11;;;;;;;2.90;2.45;;;22.20;71.60;;;;;;5087291;28;20052;-55
2023/07/24 00:48:39;;;;;;;5.68;2.38;;;22.30;71.50;;;;;;5090331;28;20052;-53
2023/07/24 00:51:07;;;;;;;3.22;2.72;;;22.20;71.40;;;;;;5089885;28;20032;-55
2023/07/24 00:53:34;;;;;;;2.90;2.40;;;22.30;71.30;;;;;;5088650;28;20039;-50
2023/07/24 00:56:03;;;;;;;4.32;2.80;;;22.30;71.20;;;;;;5066139;28;20040;-54
2023/07/24 00:58:38;;;;;;;4.43;3.20;;;22.30;71.20;;;;;;5067384;28;20047;-50
2023/07/24 01:01:05;;;;;;;3.35;3.05;;;22.30;71.10;;;;;;5088823;28;20104;-51
2023/07/24 01:03:33;;;;;;;3.63;3.03;;;22.30;70.90;;;;;;5071937;28;20048;-51
2023/07/24 01:06:04;;;;;;;4.43;3.13;;;22.20;70.80;;;;;;5071241;28;20535;-53
2023/07/24 01:08:33;;;;;;;4.13;3.53;;;22.20;70.90;;;;;;5085481;28;20067;-54
2023/07/24 01:11:05;;;;;;;4.00;3.00;;;22.20;70.70;;;;;;5066502;28;20105;-53
2023/07/24 01:13:40;;;;;;;5.55;3.70;;;22.20;71.00;;;;;;5071672;28;20097;-52
2023/07/24 01:16:15;;;;;;;4.03;3.17;;;22.10;70.90;;;;;;5088339;28;20064;-51
2023/07/24 01:18:47;;;;;;;3.53;2.65;;;22.10;70.90;;;;;;5062839;28;20093;-52
2023/07/24 01:21:24;;;;;;;3.38;3.00;;;22.00;70.90;;;;;;5089416;28;20123;-51
2023/07/24 01:24:19;;;;;;;4.63;2.92;;;22.00;71.00;;;;;;5090525;28;20064;-50
2023/07/24 01:26:49;;;;;;;3.83;2.80;;;22.00;71.30;;;;;;5070776;28;20040;-53
2023/07/24 01:29:20;;;;;;;3.45;3.10;;;22.00;71.00;;;;;;5083504;28;20048;-53
2023/07/24 01:31:47;;;;;;;4.65;3.53;;;22.00;71.00;;;;;;5066996;28;20571;-51
2023/07/24 01:34:13;;;;;;;2.92;2.67;;;21.90;71.20;;;;;;5089949;28;20040;-51
2023/07/24 01:36:40;;;;;;;3.95;3.22;;;21.90;71.20;;;;;;5072073;28;20064;-52
2023/07/24 01:39:10;;;;;;;4.45;2.92;;;21.90;71.40;;;;;;5087170;28;20036;-50
2023/07/24 01:41:42;;;;;;;3.78;3.33;;;21.90;71.40;;;;;;5084602;28;20498;-53
2023/07/24 01:44:09;;;;;;;3.55;3.10;;;21.90;71.50;;;;;;5089907;28;20050;-53
2023/07/24 01:46:43;;;;;;;3.50;2.70;;;21.90;71.60;;;;;;5089963;28;20059;-53
2023/07/24 01:49:09;;;;;;;3.97;2.90;;;21.90;71.50;;;;;;5083269;28;20051;-54
2023/07/24 01:51:45;;;;;;;3.92;2.80;;;21.90;71.40;;;;;;5081335;28;20060;-50
2023/07/24 01:54:12;;;;;;;3.30;3.00;;;21.90;71.50;;;;;;5071319;28;20521;-53
2023/07/24 01:56:39;;;;;;;4.65;2.80;;;21.90;71.40;;;;;;5071653;28;20109;-50
2023/07/24 01:59:16;;;;;;;4.90;3.35;;;21.90;71.40;;;;;;5063426;28;20399;-50
2023/07/24 02:01:45;;;;;;;3.67;2.92;;;22.00;72.10;;;;;;5070475;28;20069;-51
2023/07/24 02:04:22;;;;;;;4.72;3.22;;;22.00;71.40;;;;;;5070798;28;20044;-50
2023/07/24 02:06:50;;;;;;;3.35;2.95;;;21.90;71.30;;;;;;5086894;28;20040;-53
2023/07/24 02:09:20;;;;;;;4.93;2.97;;;22.00;71.40;;;;;;5071019;28;20072;-51
2023/07/24 02:11:51;;;;;;;5.37;3.17;;;22.00;71.70;;;;;;5070661;28;20555;-54
2023/07/24 02:14:21;;;;;;;3.17;2.90;;;22.00;71.50;;;;;;5071253;28;20286;-49
2023/07/24 02:16:51;;;;;;;3.78;2.72;;;22.00;71.50;;;;;;5079040;28;20131;-54
2023/07/24 02:19:23;;;;;;;3.88;2.97;;;22.00;71.70;;;;;;5084656;28;20048;-50
2023/07/24 02:21:49;;;;;;;2.92;2.63;;;22.00;71.50;;;;;;5070926;28;20047;-52
2023/07/24 02:24:18;;;;;;;2.65;2.45;;;22.00;71.30;;;;;;5070208;28;20063;-52
2023/07/24 02:26:50;;;;;;;5.15;3.13;;;22.00;71.50;;;;;;5081922;28;20062;-53
2023/07/24 02:29:17;;;;;;;3.75;2.70;;;22.00;71.60;;;;;;5069909;28;20573;-55
2023/07/24 02:31:43;;;;;;;4.93;2.85;;;22.00;71.50;;;;;;5082489;28;20101;-54
2023/07/24 02:34:10;;;;;;;6.03;4.00;;;22.00;71.60;;;;;;5085286;28;20036;-53
2023/07/24 02:36:42;;;;;;;4.88;3.50;;;22.00;71.50;;;;;;5088461;28;20109;-56
2023/07/24 02:39:12;;;;;;;4.50;3.00;;;22.00;71.60;;;;;;5087535;28;20040;-53
2023/07/24 02:41:39;;;;;;;3.75;3.22;;;22.00;71.40;;;;;;5066773;28;20052;-53
2023/07/24 02:44:06;;;;;;;5.15;3.50;;;22.00;71.50;;;;;;5070567;28;20040;-54
2023/07/24 02:46:40;;;;;;;4.03;3.13;;;22.00;71.50;;;;;;5069996;28;20562;-55
2023/07/24 02:49:07;;;;;;;5.30;2.92;;;22.00;71.40;;;;;;5068942;28;20076;-52
2023/07/24 02:51:38;;;;;;;4.30;3.50;;;22.00;71.50;;;;;;5083833;28;20405;-54
2023/07/24 02:54:08;;;;;;;6.90;4.03;;;22.00;71.50;;;;;;5088606;28;20036;-54
2023/07/24 02:56:35;;;;;;;5.78;3.42;;;21.90;71.50;;;;;;5088274;28;20505;-55
2023/07/24 02:59:04;;;;;;;3.38;3.08;;;21.90;71.60;;;;;;5066159;28;20392;-51
2023/07/24 03:01:36;;;;;;;4.05;3.13;;;21.90;71.90;;;;;;5070491;28;20059;-55
2023/07/24 03:04:05;;;;;;;4.05;2.90;;;21.90;72.10;;;;;;5062752;28;20064;-56
2023/07/24 03:06:34;;;;;;;4.00;3.10;;;21.90;72.10;;;;;;5088161;28;20032;-54
2023/07/24 03:09:01;;;;;;;3.88;3.22;;;21.90;72.20;;;;;;5083421;28;20131;-52
2023/07/24 03:11:29;;;;;;;4.40;3.22;;;21.90;72.10;;;;;;5070130;28;20105;-54
2023/07/24 03:13:56;;;;;;;4.35;3.08;;;21.80;72.10;;;;;;5088782;28;20456;-53
2023/07/24 03:16:25;;;;;;;4.53;2.90;;;21.80;72.10;;;;;;5067373;28;20043;-54
2023/07/24 03:18:54;;;;;;;5.07;3.70;;;21.80;72.20;;;;;;5089037;28;20066;-50
2023/07/24 03:21:21;;;;;;;5.50;3.50;;;21.80;72.10;;;;;;5073851;28;20064;-54
2023/07/24 03:23:52;;;;;;;6.63;3.28;;;21.80;72.30;;;;;;5085120;28;20044;-54
2023/07/24 03:26:19;;;;;;;3.40;2.97;;;21.80;72.40;;;;;;5089356;28;20573;-54
2023/07/24 03:28:55;;;;;;;10.27;3.45;;;21.80;72.40;;;;;;5088450;28;20460;-53
2023/07/24 03:31:21;;;;;;;4.10;3.50;;;21.80;72.40;;;;;;5084357;28;20142;-54
2023/07/24 03:33:48;;;;;;;3.83;2.95;;;21.80;72.40;;;;;;5090132;28;20101;-54
2023/07/24 03:36:15;;;;;;;3.75;3.33;;;21.80;72.40;;;;;;5091807;28;20040;-52
2023/07/24 03:38:49;;;;;;;5.57;3.58;;;21.80;72.50;;;;;;5059110;28;20056;-54
2023/07/24 03:41:20;;;;;;;4.90;4.22;;;21.70;72.60;;;;;;5062045;28;20047;-54
2023/07/24 03:43:49;;;;;;;7.53;3.90;;;21.70;72.60;;;;;;5074166;28;20110;-55
2023/07/24 03:46:16;;;;;;;5.85;3.38;;;21.80;73.00;;;;;;5093087;28;20105;-54
2023/07/24 03:48:43;;;;;;;6.75;3.60;;;21.70;73.00;;;;;;5086507;28;20055;-52
2023/07/24 03:51:11;;;;;;;6.28;3.28;;;21.70;73.20;;;;;;5092289;28;20052;-52
2023/07/24 03:53:37;;;;;;;4.45;3.50;;;21.70;73.10;;;;;;5091966;28;20071;-53
2023/07/24 03:56:06;;;;;;;5.05;3.75;;;21.70;73.40;;;;;;5090200;28;20105;-52
2023/07/24 03:58:33;;;;;;;5.10;4.10;;;21.60;73.60;;;;;;5085669;28;20041;-52
2023/07/24 04:01:02;;;;;;;4.25;3.60;;;21.50;73.80;;;;;;5086369;28;20512;-53
2023/07/24 04:03:31;;;;;;;6.07;3.97;;;21.50;74.00;;;;;;5091698;28;20048;-54
2023/07/24 04:05:58;;;;;;;4.70;3.30;;;21.40;74.30;;;;;;5091938;28;20464;-54
2023/07/24 04:08:25;;;;;;;5.10;2.88;;;21.40;74.20;;;;;;5086591;28;20040;-54
2023/07/24 04:10:53;;;;;;;3.25;2.92;;;21.30;74.20;;;;;;5091775;28;20540;-52
2023/07/24 04:13:22;;;;;;;3.67;2.95;;;21.30;74.60;;;;;;5091728;28;20090;-54
2023/07/24 04:15:49;;;;;;;6.22;3.90;;;21.30;74.70;;;;;;5065313;28;20753;-53
2023/07/24 04:18:20;;;;;;;5.53;3.80;;;21.20;74.80;;;;;;5070929;28;20445;-53
2023/07/24 04:20:51;;;;;;;5.90;3.83;;;21.20;75.10;;;;;;5073453;28;20127;-52
2023/07/24 04:23:17;;;;;;;6.28;4.43;;;21.20;75.30;;;;;;5091817;28;20390;-54
2023/07/24 04:25:46;;;;;;;5.95;3.90;;;21.20;75.40;;;;;;5089071;28;20064;-54
2023/07/24 04:28:13;;;;;;;7.05;4.00;;;21.20;75.60;;;;;;5090282;28;20067;-53
2023/07/24 04:30:40;;;;;;;5.28;3.42;;;21.20;75.60;;;;;;5083433;28;20044;-53
2023/07/24 04:33:08;;;;;;;4.05;3.63;;;21.20;75.70;;;;;;5084540;28;20051;-53
2023/07/24 04:35:39;;;;;;;4.60;3.13;;;21.20;75.60;;;;;;5083267;28;20132;-50
2023/07/24 04:38:08;;;;;;;5.03;3.97;;;21.20;75.70;;;;;;5083279;28;20043;-55
2023/07/24 04:40:35;;;;;;;4.22;3.63;;;21.20;76.00;;;;;;5083041;28;20040;-50
2023/07/24 04:43:24;;;;;;;6.45;3.92;;;21.10;75.70;;;;;;5072053;28;20067;-53
2023/07/24 04:45:53;;;;;;;4.95;4.00;;;21.20;76.00;;;;;;5087800;28;20040;-54
2023/07/24 04:48:20;;;;;;;5.38;3.55;;;21.20;75.80;;;;;;5084267;28;20101;-55
2023/07/24 04:50:52;;;;;;;4.13;3.55;;;21.20;75.90;;;;;;5082545;28;20072;-54
2023/07/24 04:53:19;;;;;;;4.97;3.63;;;21.20;75.90;;;;;;5090621;28;20128;-53
2023/07/24 04:55:46;;;;;;;4.70;3.67;;;21.20;75.90;;;;;;5090552;28;20144;-55
2023/07/24 04:58:12;;;;;;;5.22;4.20;;;21.30;75.80;;;;;;5088831;28;20075;-54
2023/07/24 05:00:39;;;;;;;4.72;3.53;;;21.30;75.60;;;;;;5083880;28;20043;-54
2023/07/24 05:03:11;;;;;;;5.47;3.58;;;21.30;75.50;;;;;;5090398;28;20102;-53
2023/07/24 05:05:38;;;;;;;5.25;4.07;;;21.30;75.70;;;;;;5071995;28;20036;-55
2023/07/24 05:08:09;;;;;;;7.50;4.45;;;21.30;75.40;;;;;;5084739;28;20063;-52
2023/07/24 05:10:36;;;;;;;4.65;3.45;;;21.40;75.40;;;;;;5085660;28;20048;-55
2023/07/24 05:13:03;;;;;;;4.25;3.75;;;21.40;75.50;;;;;;5085339;28;20551;-54
2023/07/24 05:15:30;;;;;;;4.30;3.42;;;21.40;75.60;;;;;;5088510;28;20040;-54
2023/07/24 05:17:56;;;;;;;4.60;3.83;;;21.40;75.40;;;;;;5085835;28;20043;-53
2023/07/24 05:20:23;;;;;;;6.90;4.13;;;21.50;75.40;;;;;;5087306;28;20115;-54
2023/07/24 05:22:50;;;;;;;5.20;3.42;;;21.50;75.40;;;;;;5084104;28;20089;-54
2023/07/24 05:25:16;;;;;;;5.78;4.50;;;21.50;75.20;;;;;;5066262;28;20044;-53
2023/07/24 05:27:43;;;;;;;3.90;3.58;;;21.60;75.30;;;;;;5065115;28;20060;-54
2023/07/24 05:30:11;;;;;;;7.43;4.45;;;21.60;75.10;;;;;;5085732;28;20048;-52
2023/07/24 05:32:38;;;;;;;5.55;3.92;;;21.60;74.90;;;;;;5088573;28;20040;-54
2023/07/24 05:35:05;;;;;;;5.00;3.78;;;21.60;74.90;;;;;;5088567;28;20047;-55
2023/07/24 05:37:32;;;;;;;6.55;3.45;;;21.60;74.60;;;;;;5086323;28;20044;-52
2023/07/24 05:39:59;;;;;;;5.53;3.85;;;21.70;74.60;;;;;;5087798;28;20093;-54
2023/07/24 05:42:25;;;;;;;4.40;3.55;;;21.70;74.80;;;;;;5088471;28;20036;-53
2023/07/24 05:44:52;;;;;;;4.88;3.83;;;21.70;74.60;;;;;;5088698;28;20046;-54
2023/07/24 05:47:21;;;;;;;4.32;3.55;;;21.70;74.70;;;;;;5084545;28;20036;-53
2023/07/24 05:49:48;;;;;;;4.82;3.20;;;21.70;74.70;;;;;;5087523;28;20701;-53
2023/07/24 05:52:15;;;;;;;3.90;3.30;;;21.80;74.70;;;;;;5085803;28;20196;-53
2023/07/24 05:54:41;;;;;;;5.82;3.78;;;21.80;74.60;;;;;;5085465;28;20044;-54
2023/07/24 05:57:08;;;;;;;3.95;3.40;;;21.90;74.30;;;;;;5088786;28;20115;-55
2023/07/24 05:59:35;;;;;;;6.50;3.95;;;22.00;74.40;;;;;;5085539;28;20119;-53
2023/07/24 06:02:01;;;;;;;4.10;3.70;;;22.10;74.40;;;;;;5086066;28;20071;-56
2023/07/24 06:04:28;;;;;;;3.78;3.28;;;22.10;74.40;;;;;;5087999;28;20039;-53
2023/07/24 06:06:55;;;;;;;3.78;3.22;;;22.20;74.20;;;;;;5086379;28;20060;-53
2023/07/24 06:09:24;;;;;;;5.22;3.50;;;22.30;73.90;;;;;;5084290;28;20040;-51
2023/07/24 06:11:51;;;;;;;4.30;3.53;;;22.30;73.50;;;;;;5086705;28;20068;-54
2023/07/24 06:14:17;;;;;;;4.82;3.20;;;22.40;73.30;;;;;;5089038;28;20064;-54
2023/07/24 06:16:44;;;;;;;4.63;3.30;;;22.40;73.10;;;;;;5085654;28;20091;-54
2023/07/24 06:19:11;;;;;;;4.80;3.95;;;22.40;73.70;;;;;;5066042;28;20119;-50
2023/07/24 06:21:37;;;;;;;3.55;3.25;;;22.50;72.90;;;;;;5087524;28;20493;-52
2023/07/24 06:24:04;;;;;;;4.63;3.70;;;22.50;72.80;;;;;;5087548;28;20042;-54
2023/07/24 06:26:31;;;;;;;4.05;3.25;;;22.50;72.70;;;;;;5088816;28;20612;-53
2023/07/24 06:28:58;;;;;;;5.05;3.70;;;22.50;72.90;;;;;;5084570;28;20394;-52
2023/07/24 06:31:27;;;;;;;4.55;2.95;;;22.50;72.90;;;;;;5087562;28;20115;-54
2023/07/24 06:33:54;;;;;;;4.32;3.05;;;22.50;72.90;;;;;;5087690;28;20518;-54
2023/07/24 06:36:21;;;;;;;3.78;2.90;;;22.60;72.70;;;;;;5089293;28;20062;-56
2023/07/24 06:38:47;;;;;;;4.15;3.63;;;22.60;72.40;;;;;;5087682;28;20071;-54
2023/07/24 06:41:19;;;;;;;3.22;2.25;;;22.50;72.20;;;;;;5085859;28;20032;-54
2023/07/24 06:43:46;;;;;;;5.10;2.58;;;22.50;72.00;;;;;;5086492;28;20510;-55
2023/07/24 06:46:13;;;;;;;3.58;2.92;;;22.50;72.00;;;;;;5088440;28;20113;-55
2023/07/24 06:48:39;;;;;;;4.93;3.13;;;22.50;72.10;;;;;;5085151;28;20036;-54
2023/07/24 06:51:06;;;;;;;3.33;2.97;;;22.40;72.20;;;;;;5087475;28;20040;-54
2023/07/24 06:53:33;;;;;;;3.55;2.70;;;22.40;72.10;;;;;;5092238;28;20054;-54
2023/07/24 06:55:59;;;;;;;3.53;2.95;;;22.40;72.20;;;;;;5093018;28;20097;-54
2023/07/24 06:58:26;;;;;;;3.40;2.72;;;22.40;72.40;;;;;;5084453;28;20068;-53
2023/07/24 07:00:53;;;;;;;2.60;2.15;;;22.40;72.30;;;;;;5091388;28;20491;-54
2023/07/24 07:03:19;;;;;;;4.03;2.67;;;22.30;72.60;;;;;;5092556;28;20044;-54
2023/07/24 07:05:46;;;;;;;2.25;2.05;;;22.30;72.50;;;;;;5086691;28;20568;-53
2023/07/24 07:08:13;;;;;;;2.88;2.58;;;22.30;72.50;;;;;;5092406;28;20068;-54
2023/07/24 07:10:39;;;;;;;2.13;1.90;;;22.30;72.70;;;;;;5073703;28;20490;-54
2023/07/24 07:13:06;;;;;;;3.15;1.90;;;22.30;72.90;;;;;;5092215;28;20125;-53
2023/07/24 07:15:32;;;;;;;2.13;1.73;;;22.30;73.10;;;;;;5090425;28;20048;-53
2023/07/24 07:17:59;;;;;;;2.55;1.85;;;22.30;73.00;;;;;;5088390;28;20063;-52
2023/07/24 07:20:26;;;;;;;1.55;1.40;;;22.20;73.00;;;;;;5091607;28;20036;-54
2023/07/24 07:22:56;;;;;;;1.73;1.60;;;22.20;73.00;;;;;;5106023;22;20048;31
2023/07/24 07:25:23;;;;;;;1.95;1.50;;;22.20;73.20;;;;;;5049121;28;20072;-47
2023/07/24 07:27:50;;;;;;;2.10;1.90;;;22.10;73.10;;;;;;5050914;28;20037;-51
2023/07/24 07:30:16;;;;;;;1.70;1.58;;;22.10;73.20;;;;;;5049463;28;20530;-50
2023/07/24 07:32:44;;;;;;;1.52;1.42;;;22.10;73.20;;;;;;5047481;28;20306;-51
2023/07/24 07:35:11;;;;;;;1.40;1.30;;;22.10;73.60;;;;;;5052682;28;20136;-51
2023/07/24 07:37:38;;;;;;;1.38;1.05;;;22.20;73.40;;;;;;5050747;28;20124;-51
2023/07/24 07:40:06;;;;;;;1.48;1.33;;;22.20;73.40;;;;;;5050708;28;20048;-52
2023/07/24 07:42:32;;;;;;;1.60;1.50;;;22.20;73.10;;;;;;5050796;28;20115;-51
2023/07/24 07:44:59;;;;;;;1.23;1.08;;;22.30;73.20;;;;;;5052557;28;20044;-52
2023/07/24 07:47:26;;;;;;;3.13;1.40;;;22.30;73.10;;;;;;5049569;28;20041;-52
2023/07/24 07:49:52;;;;;;;1.58;1.38;;;22.30;73.20;;;;;;5050764;28;20116;-51
2023/07/24 07:52:21;;;;;;;1.90;1.20;;;22.40;73.10;;;;;;5050944;28;20112;-51
2023/07/24 07:54:49;;;;;;;1.42;1.27;;;22.40;73.00;;;;;;5048963;28;20073;-52
2023/07/24 07:57:15;;;;;;;1.38;1.27;;;22.40;72.80;;;;;;5049221;28;20560;-51
2023/07/24 07:59:42;;;;;;;2.50;1.88;;;22.50;72.80;;;;;;5051911;28;20068;-52
2023/07/24 08:02:09;;;;;;;2.97;2.05;;;22.50;73.10;;;;;;5050524;28;20068;-50
2023/07/24 08:04:35;;;;;;;3.83;2.00;;;22.50;73.10;;;;;;5051855;28;20056;-51
2023/07/24 08:07:02;;;;;;;4.40;2.00;;;22.60;73.40;;;;;;5048147;28;20521;-52
2023/07/24 08:09:29;;;;;;;3.25;1.60;;;22.70;73.90;;;;;;5051150;28;20529;-51
2023/07/24 08:11:56;;;;;;;1.65;1.55;;;22.80;72.50;;;;;;5050468;28;20111;-53
2023/07/24 08:14:25;;;;;;;1.80;1.50;;;22.90;71.90;;;;;;5051343;28;20095;-52
2023/07/24 08:16:53;;;;;;;2.72;1.63;;;23.00;71.10;;;;;;5049093;28;20044;-52
2023/07/24 08:19:19;;;;;;;2.13;1.80;;;23.10;71.30;;;;;;5047577;28;20713;-52
2023/07/24 08:21:47;;;;;;;1.77;1.48;;;23.20;70.40;;;;;;5050475;28;20037;-52
2023/07/24 08:24:14;;;;;;;2.20;1.10;;;23.20;69.70;;;;;;5050007;28;20056;-52
2023/07/24 08:26:40;;;;;;;1.70;1.30;;;23.30;69.10;;;;;;5051110;28;20514;-52
2023/07/24 08:29:07;;;;;;;2.95;1.35;;;23.40;69.40;;;;;;5049346;28;20162;-52
2023/07/24 08:31:34;;;;;;;1.52;1.42;;;23.40;69.40;;;;;;5051118;28;20036;-51
2023/07/24 08:34:01;;;;;;;1.70;1.60;;;23.40;69.30;;;;;;5050926;28;20103;-52
2023/07/24 08:36:28;;;;;;;2.38;1.60;;;23.50;69.40;;;;;;5050665;28;20047;-52
2023/07/24 08:38:56;;;;;;;2.75;1.88;;;23.50;69.50;;;;;;5049480;28;20056;-52
2023/07/24 08:41:22;;;;;;;2.15;1.48;;;23.50;69.40;;;;;;5050067;28;20557;-52
2023/07/24 08:43:53;;;;;;;2.15;1.95;;;23.60;69.20;;;;;;5050647;28;20523;-50
2023/07/24 08:46:21;;;;;;;1.98;1.75;;;23.60;69.50;;;;;;5048325;28;20507;-52
2023/07/24 08:48:48;;;;;;;2.10;1.90;;;23.70;69.20;;;;;;5050201;28;20053;-52
2023/07/24 08:51:24;;;;;;;1.98;1.88;;;23.70;69.00;;;;;;5049486;28;20136;-49
2023/07/24 08:53:51;;;;;;;2.55;2.35;;;23.70;68.90;;;;;;5046608;28;20052;-52
2023/07/24 08:56:19;;;;;;;2.80;2.22;;;23.80;69.40;;;;;;5049880;28;20140;-52
2023/07/24 08:58:45;;;;;;;1.92;1.83;;;23.80;69.60;;;;;;5047646;28;20129;-52
2023/07/24 09:01:12;;;;;;;3.08;1.90;;;23.80;69.60;;;;;;5051111;28;20064;-52
2023/07/24 09:03:41;;;;;;;2.13;2.00;;;23.90;69.40;;;;;;5050218;28;20033;-52
2023/07/24 09:06:08;;;;;;;2.35;2.15;;;24.00;69.80;;;;;;5048958;28;20467;-52
2023/07/24 09:08:37;;;;;;;2.25;1.95;;;24.00;69.30;;;;;;5049846;28;20060;-52
2023/07/24 09:11:06;;;;;;;2.03;1.73;;;24.10;68.10;;;;;;5049298;28;20045;-52
2023/07/24 09:13:34;;;;;;;3.83;1.80;;;24.10;67.80;;;;;;5048217;28;20403;-50
2023/07/24 09:16:02;;;;;;;1.70;1.60;;;24.10;67.30;;;;;;5049983;28;20471;-51
2023/07/24 09:18:44;;;;;;;2.28;1.77;;;24.10;67.60;;;;;;5045025;28;20120;-52
2023/07/24 09:21:12;;;;;;;1.70;1.60;;;24.20;68.00;;;;;;5047181;28;20041;-51
2023/07/24 09:23:40;;;;;;;2.00;1.83;;;24.20;67.60;;;;;;5050068;28;20041;-52
2023/07/24 09:26:08;;;;;;;2.55;1.42;;;24.20;67.30;;;;;;5049863;28;20033;-52
2023/07/24 09:28:35;;;;;;;1.40;1.30;;;24.20;66.70;;;;;;5046507;28;20040;-52
2023/07/24 09:31:04;;;;;;;2.78;1.38;;;24.20;67.40;;;;;;5049597;28;20368;-53
2023/07/24 09:33:36;;;;;;;1.40;1.30;;;24.30;67.30;;;;;;5049498;28;20413;-52
2023/07/24 09:36:04;;;;;;;1.10;1.10;;;24.30;66.60;;;;;;5049860;28;20140;-53
2023/07/24 09:38:31;;;;;;;1.60;1.35;;;24.40;67.10;;;;;;5047091;28;20041;-53
2023/07/24 09:40:58;;;;;;;1.90;1.25;;;24.40;67.40;;;;;;5048250;28;20065;-52
2023/07/24 09:43:27;;;;;;;2.55;1.50;;;24.50;67.40;;;;;;5048929;28;20040;-52
2023/07/24 09:46:06;;;;;;;1.95;1.70;;;24.50;67.20;;;;;;5047687;28;20036;-52
2023/07/24 09:48:34;;;;;;;2.35;1.40;;;24.50;67.20;;;;;;5048722;28;20033;-52
2023/07/24 09:51:04;;;;;;;1.40;1.30;;;24.60;67.80;;;;;;5048386;28;20045;-51
2023/07/24 09:53:42;;;;;;;1.55;1.40;;;24.60;67.60;;;;;;5049111;28;20045;-51
2023/07/24 09:56:10;;;;;;;2.50;1.35;;;24.70;67.10;;;;;;5042959;28;20106;-52
2023/07/24 09:58:38;;;;;;;1.30;1.20;;;24.70;66.30;;;;;;5046754;28;20045;-56
2023/07/24 10:01:09;;;;;;;1.48;1.38;;;24.80;66.30;;;;;;5047958;28;20556;-56
2023/07/24 10:03:48;;;;;;;1.55;1.45;;;24.80;66.50;;;;;;5048233;28;20037;-56
2023/07/24 10:06:16;;;;;;;2.10;1.90;;;24.80;66.00;;;;;;5046646;28;20049;-56
2023/07/24 10:08:44;;;;;;;1.60;1.50;;;24.90;67.30;;;;;;5046680;28;20706;-55
2023/07/24 10:11:12;;;;;;;2.80;1.23;;;25.00;66.90;;;;;;5047889;28;20053;-56
2023/07/24 10:13:40;;;;;;;1.50;1.40;;;25.10;66.30;;;;;;5046350;28;20064;-56
2023/07/24 10:16:07;;;;;;;1.55;1.33;;;25.20;65.90;;;;;;5048050;28;20057;-55
2023/07/24 10:18:35;;;;;;;2.30;1.30;;;25.30;65.00;;;;;;5048358;28;20457;-56
2023/07/24 10:21:04;;;;;;;1.33;1.23;;;25.40;64.80;;;;;;5047508;28;20136;-56
2023/07/24 10:23:43;;;;;;;1.52;1.42;;;25.40;64.30;;;;;;5027731;28;20152;-55
2023/07/24 10:26:10;;;;;;;3.63;2.22;;;25.30;64.50;;;;;;5047314;28;20172;-56
2023/07/24 10:28:40;;;;;;;2.45;1.70;;;25.30;64.60;;;;;;5050193;28;20050;-56
2023/07/24 10:31:23;;;;;;;3.40;1.80;;;25.10;65.00;;;;;;5053124;28;20061;-56
2023/07/24 10:33:51;;;;;;;2.25;1.42;;;25.00;65.70;;;;;;5047897;28;20064;-55
2023/07/24 10:36:20;;;;;;;1.70;1.60;;;24.80;65.10;;;;;;5053201;28;20053;-57
2023/07/24 10:38:56;;;;;;;2.50;1.25;;;24.60;65.20;;;;;;5050111;28;20514;-55
2023/07/24 10:41:37;;;;;;;2.15;1.00;;;24.40;66.20;;;;;;5051261;28;20037;-56
2023/07/24 10:44:04;;;;;;;1.63;1.38;;;24.20;66.60;;;;;;5051253;28;20063;-56
2023/07/24 10:46:42;;;;;;;1.95;1.52;;;24.00;67.00;;;;;;5051174;28;20140;-56
2023/07/24 10:49:09;;;;;;;1.40;1.30;;;23.80;68.50;;;;;;5051514;28;20087;-57
2023/07/24 10:51:37;;;;;;;1.25;1.15;;;23.60;68.60;;;;;;5052955;28;20069;-57
2023/07/24 10:54:05;;;;;;;1.85;1.40;;;23.50;68.40;;;;;;5052063;28;20029;-57
2023/07/24 10:56:32;;;;;;;1.25;1.15;;;23.40;68.40;;;;;;5032682;28;20052;-57
2023/07/24 10:59:05;;;;;;;2.83;1.77;;;23.30;68.90;;;;;;5048457;28;20557;-57
2023/07/24 11:01:33;;;;;;;3.17;1.38;;;23.20;70.40;;;;;;5054121;28;20564;-56
2023/07/24 11:04:01;;;;;;;1.30;1.20;;;23.10;70.40;;;;;;5052167;28;20041;-56
2023/07/24 11:06:28;;;;;;;3.13;2.35;;;23.00;69.60;;;;;;5050034;28;20040;-57
2023/07/24 11:08:59;;;;;;;2.25;1.73;;;23.00;69.80;;;;;;5051412;28;20072;-56
2023/07/24 11:11:33;;;;;;;2.25;1.50;;;22.90;70.50;;;;;;5052732;28;20056;-57
2023/07/24 11:14:02;;;;;;;1.70;1.33;;;22.80;70.50;;;;;;5048407;28;20041;-56
2023/07/24 11:16:33;;;;;;;1.52;1.35;;;22.70;70.40;;;;;;5051749;28;20048;-56
2023/07/24 11:19:00;;;;;;;1.40;1.30;;;22.60;70.30;;;;;;5051597;28;20060;-57
2023/07/24 11:21:28;;;;;;;3.60;1.80;;;22.50;70.40;;;;;;5050811;28;20600;-57
2023/07/24 11:23:56;;;;;;;2.03;1.63;;;22.50;71.10;;;;;;5050641;28;20045;-57
2023/07/24 11:26:25;;;;;;;4.03;1.25;;;22.40;72.20;;;;;;5051311;28;20037;-57
2023/07/24 11:28:53;;;;;;;1.70;1.60;;;22.40;72.90;;;;;;5049038;28;20065;-56
2023/07/24 11:31:20;;;;;;;1.67;1.48;;;22.40;73.30;;;;;;5053070;28;20045;-56
2023/07/24 11:33:50;;;;;;;1.92;1.40;;;22.40;73.90;;;;;;5051716;28;20052;-56
2023/07/24 11:36:17;;;;;;;1.80;1.30;;;22.50;73.90;;;;;;5049887;28;20037;-56
2023/07/24 11:38:48;;;;;;;1.17;1.17;;;22.50;73.70;;;;;;5049606;28;20128;-56
2023/07/24 11:41:17;;;;;;;1.63;1.45;;;22.70;73.80;;;;;;5049179;28;20113;-57
2023/07/24 11:43:50;;;;;;;2.10;1.70;;;22.80;73.50;;;;;;5049567;28;20041;-56
2023/07/24 11:46:27;;;;;;;1.88;1.17;;;22.90;73.20;;;;;;5052046;28;20547;-55
2023/07/24 11:48:56;;;;;;;1.42;1.25;;;23.10;72.80;;;;;;5045054;28;20041;-56
2023/07/24 11:51:27;;;;;;;1.38;1.20;;;23.20;70.70;;;;;;5051414;28;20513;-56
2023/07/24 11:54:11;;;;;;;1.35;1.25;;;23.40;71.00;;;;;;5047291;28;20049;-56
2023/07/24 11:56:38;;;;;;;1.05;0.93;;;23.50;71.00;;;;;;5051022;28;20053;-57
2023/07/24 11:59:14;;;;;;;1.00;0.93;;;23.70;70.00;;;;;;5048318;28;20151;-57
2023/07/24 12:01:45;;;;;;;1.10;1.10;;;23.80;69.80;;;;;;5051105;28;20033;-56
2023/07/24 12:04:13;;;;;;;1.23;1.00;;;24.00;70.50;;;;;;5050985;28;20037;-57
2023/07/24 12:06:43;;;;;;;1.38;1.10;;;24.10;70.50;;;;;;5048179;28;20072;-56
2023/07/24 12:09:11;;;;;;;1.20;1.10;;;24.30;69.70;;;;;;5049227;28;20076;-57
2023/07/24 12:11:43;;;;;;;1.40;1.30;;;24.50;68.60;;;;;;5051614;28;20057;-57
2023/07/24 12:14:14;;;;;;;1.13;1.02;;;24.70;66.80;;;;;;5048624;28;20144;-57
2023/07/24 12:16:40;;;;;;;0.88;0.85;;;24.90;66.90;;;;;;5048724;28;20179;-57
2023/07/24 12:19:07;;;;;;;0.98;0.88;;;24.90;66.60;;;;;;5050176;28;20056;-56
2023/07/24 12:21:34;;;;;;;1.48;1.38;;;25.00;65.70;;;;;;5051223;28;20518;-56
2023/07/24 12:24:01;;;;;;;1.00;0.93;;;25.10;65.60;;;;;;5048208;28;20041;-56
2023/07/24 12:26:27;;;;;;;1.42;1.33;;;25.10;65.50;;;;;;5050444;28;20123;-56
2023/07/24 12:28:54;;;;;;;1.15;1.05;;;25.10;65.70;;;;;;5047030;28;20785;-56
2023/07/24 12:31:21;;;;;;;1.10;1.00;;;25.20;66.00;;;;;;5051041;28;20044;-56
2023/07/24 12:33:48;;;;;;;2.08;1.00;;;25.30;66.30;;;;;;5046174;28;20502;-55
2023/07/24 12:36:15;;;;;;;1.52;1.17;;;25.40;65.90;;;;;;5051083;28;20048;-56
2023/07/24 12:38:43;;;;;;;0.95;0.85;;;25.60;66.10;;;;;;5050271;28;20040;-56
2023/07/24 12:41:12;;;;;;;1.13;1.02;;;25.70;66.40;;;;;;5048921;28;20041;-57
2023/07/24 12:43:39;;;;;;;1.48;0.93;;;25.90;65.50;;;;;;5049747;28;20875;-56
2023/07/24 12:46:05;;;;;;;1.20;1.10;;;26.00;65.20;;;;;;5051056;28;20125;-57
2023/07/24 12:48:32;;;;;;;1.20;0.93;;;26.10;64.20;;;;;;5048248;28;20045;-56
2023/07/24 12:51:00;;;;;;;1.45;1.35;;;26.30;62.70;;;;;;5045033;28;20044;-56
2023/07/24 12:53:27;;;;;;;0.95;0.95;;;26.40;62.40;;;;;;5035702;28;20072;-56
2023/07/24 12:56:03;;;;;;;0.93;0.60;;;26.50;62.70;;;;;;5045029;28;20086;-56